Monticello, Kentucky
Current Conditions -  °F | °C
As of 11:26 PM on Wednesday 26 Nov 2014 (Local Time) from KEKQ Reporting Station
Light Snow Light Snow  
Wind Chill: 37°   Ceiling: 800
Heat Index: 37°   Visibility: 4mi
Dew Point: 36°   Wind: 0mph
Humidity: 93%   Direction: NA
Pressure: 30.04"   Gusts: NA
Location:  36.83°N, 84.85°W
Report Text: KEKQ 270426Z AUTO 00000KT 4SM -SN BR OVC008 03/02 A3004 RMK AO2 P0000
Loading
Personal Weather Stations






























Interactive Weather Map New forecast layout! Learn more

10-Day Weather Forecast

Advertisements
Track Severe Weather on mobile